sensor_id;sensor_type;location;lat;lon;timestamp;P1;durP1;ratioP1;P2;durP2;ratioP2
56201;SDS011;42117;50.360;3.508;2023-04-24T00:00:47;11.90;;;6.13;;
56201;SDS011;42117;50.360;3.508;2023-04-24T00:03:13;11.52;;;6.47;;
56201;SDS011;42117;50.360;3.508;2023-04-24T00:05:39;9.25;;;5.32;;
56201;SDS011;42117;50.360;3.508;2023-04-24T00:08:06;16.52;;;8.70;;
56201;SDS011;42117;50.360;3.508;2023-04-24T00:10:32;10.93;;;6.97;;
56201;SDS011;42117;50.360;3.508;2023-04-24T00:12:58;9.27;;;5.33;;
56201;SDS011;42117;50.360;3.508;2023-04-24T00:15:24;14.40;;;7.10;;
56201;SDS011;42117;50.360;3.508;2023-04-24T00:17:50;11.68;;;6.57;;
56201;SDS011;42117;50.360;3.508;2023-04-24T00:20:18;7.53;;;5.55;;
56201;SDS011;42117;50.360;3.508;2023-04-24T00:22:44;10.48;;;5.25;;
56201;SDS011;42117;50.360;3.508;2023-04-24T00:25:10;9.88;;;6.15;;
56201;SDS011;42117;50.360;3.508;2023-04-24T00:27:36;7.10;;;5.40;;
56201;SDS011;42117;50.360;3.508;2023-04-24T00:30:03;7.90;;;4.57;;
56201;SDS011;42117;50.360;3.508;2023-04-24T00:32:30;7.70;;;4.95;;
56201;SDS011;42117;50.360;3.508;2023-04-24T00:34:56;8.02;;;5.68;;
56201;SDS011;42117;50.360;3.508;2023-04-24T00:37:22;8.50;;;5.00;;
56201;SDS011;42117;50.360;3.508;2023-04-24T00:39:48;8.15;;;5.70;;
56201;SDS011;42117;50.360;3.508;2023-04-24T00:42:14;4.83;;;4.17;;
56201;SDS011;42117;50.360;3.508;2023-04-24T00:44:40;6.95;;;4.38;;
56201;SDS011;42117;50.360;3.508;2023-04-24T00:47:06;10.40;;;3.63;;
56201;SDS011;42117;50.360;3.508;2023-04-24T00:49:32;5.60;;;3.80;;
56201;SDS011;42117;50.360;3.508;2023-04-24T00:51:59;4.30;;;3.37;;
56201;SDS011;42117;50.360;3.508;2023-04-24T00:54:24;8.98;;;4.32;;
56201;SDS011;42117;50.360;3.508;2023-04-24T00:56:50;7.50;;;4.95;;
56201;SDS011;42117;50.360;3.508;2023-04-24T00:59:17;12.77;;;6.45;;
56201;SDS011;42117;50.360;3.508;2023-04-24T01:01:43;3.35;;;3.15;;
56201;SDS011;42117;50.360;3.508;2023-04-24T01:04:10;10.27;;;4.57;;
56201;SDS011;42117;50.360;3.508;2023-04-24T01:06:38;8.90;;;5.38;;
56201;SDS011;42117;50.360;3.508;2023-04-24T01:09:04;7.15;;;5.18;;
56201;SDS011;42117;50.360;3.508;2023-04-24T01:11:30;4.95;;;4.45;;
56201;SDS011;42117;50.360;3.508;2023-04-24T01:13:57;9.63;;;5.50;;
56201;SDS011;42117;50.360;3.508;2023-04-24T01:16:23;14.77;;;6.13;;
56201;SDS011;42117;50.360;3.508;2023-04-24T01:18:49;8.38;;;5.35;;
56201;SDS011;42117;50.360;3.508;2023-04-24T01:21:16;5.85;;;4.05;;
56201;SDS011;42117;50.360;3.508;2023-04-24T01:23:44;13.00;;;4.60;;
56201;SDS011;42117;50.360;3.508;2023-04-24T01:26:10;12.57;;;6.13;;
56201;SDS011;42117;50.360;3.508;2023-04-24T01:28:36;5.77;;;4.27;;
56201;SDS011;42117;50.360;3.508;2023-04-24T01:31:02;11.50;;;6.10;;
56201;SDS011;42117;50.360;3.508;2023-04-24T01:33:28;10.75;;;5.75;;
56201;SDS011;42117;50.360;3.508;2023-04-24T01:35:54;11.90;;;7.00;;
56201;SDS011;42117;50.360;3.508;2023-04-24T01:38:21;7.57;;;4.20;;
56201;SDS011;42117;50.360;3.508;2023-04-24T01:40:47;3.88;;;3.53;;
56201;SDS011;42117;50.360;3.508;2023-04-24T01:43:13;7.63;;;4.78;;
56201;SDS011;42117;50.360;3.508;2023-04-24T01:45:39;13.10;;;6.30;;
56201;SDS011;42117;50.360;3.508;2023-04-24T01:48:05;6.90;;;4.40;;
56201;SDS011;42117;50.360;3.508;2023-04-24T01:50:31;7.10;;;3.70;;
56201;SDS011;42117;50.360;3.508;2023-04-24T01:52:57;5.18;;;4.63;;
56201;SDS011;42117;50.360;3.508;2023-04-24T01:55:23;6.93;;;5.00;;
56201;SDS011;42117;50.360;3.508;2023-04-24T01:57:49;7.10;;;5.30;;
56201;SDS011;42117;50.360;3.508;2023-04-24T02:00:16;4.43;;;4.03;;
56201;SDS011;42117;50.360;3.508;2023-04-24T02:02:42;6.38;;;4.50;;
56201;SDS011;42117;50.360;3.508;2023-04-24T02:05:08;5.32;;;4.00;;
56201;SDS011;42117;50.360;3.508;2023-04-24T02:07:34;2.95;;;2.75;;
56201;SDS011;42117;50.360;3.508;2023-04-24T02:10:01;4.82;;;3.75;;
56201;SDS011;42117;50.360;3.508;2023-04-24T02:12:27;3.30;;;3.00;;
56201;SDS011;42117;50.360;3.508;2023-04-24T02:14:53;11.15;;;4.63;;
56201;SDS011;42117;50.360;3.508;2023-04-24T02:17:19;9.43;;;4.07;;
56201;SDS011;42117;50.360;3.508;2023-04-24T02:19:45;9.88;;;4.32;;
56201;SDS011;42117;50.360;3.508;2023-04-24T02:22:11;4.43;;;3.20;;
56201;SDS011;42117;50.360;3.508;2023-04-24T02:24:38;9.60;;;3.63;;
56201;SDS011;42117;50.360;3.508;2023-04-24T02:27:04;6.30;;;3.78;;
56201;SDS011;42117;50.360;3.508;2023-04-24T02:29:30;8.55;;;4.32;;
56201;SDS011;42117;50.360;3.508;2023-04-24T02:31:56;3.17;;;2.90;;
56201;SDS011;42117;50.360;3.508;2023-04-24T02:34:22;2.80;;;2.60;;
56201;SDS011;42117;50.360;3.508;2023-04-24T02:36:48;3.72;;;3.10;;
56201;SDS011;42117;50.360;3.508;2023-04-24T02:39:15;8.25;;;4.10;;
56201;SDS011;42117;50.360;3.508;2023-04-24T02:41:44;5.85;;;3.70;;
56201;SDS011;42117;50.360;3.508;2023-04-24T02:44:10;8.05;;;5.43;;
56201;SDS011;42117;50.360;3.508;2023-04-24T02:46:36;3.97;;;3.72;;
56201;SDS011;42117;50.360;3.508;2023-04-24T02:49:02;12.70;;;4.83;;
56201;SDS011;42117;50.360;3.508;2023-04-24T02:51:28;5.47;;;4.87;;
56201;SDS011;42117;50.360;3.508;2023-04-24T02:53:54;10.80;;;4.65;;
56201;SDS011;42117;50.360;3.508;2023-04-24T02:56:20;10.52;;;5.60;;
56201;SDS011;42117;50.360;3.508;2023-04-24T02:58:46;5.50;;;4.90;;
56201;SDS011;42117;50.360;3.508;2023-04-24T03:01:12;5.45;;;3.72;;
56201;SDS011;42117;50.360;3.508;2023-04-24T03:03:38;4.13;;;3.83;;
56201;SDS011;42117;50.360;3.508;2023-04-24T03:06:05;8.63;;;5.03;;
56201;SDS011;42117;50.360;3.508;2023-04-24T03:08:32;10.43;;;5.65;;
56201;SDS011;42117;50.360;3.508;2023-04-24T03:10:59;8.70;;;5.95;;
56201;SDS011;42117;50.360;3.508;2023-04-24T03:13:25;7.35;;;5.35;;
56201;SDS011;42117;50.360;3.508;2023-04-24T03:15:51;10.05;;;5.32;;
56201;SDS011;42117;50.360;3.508;2023-04-24T03:18:17;8.52;;;5.25;;
56201;SDS011;42117;50.360;3.508;2023-04-24T03:20:45;14.20;;;6.38;;
56201;SDS011;42117;50.360;3.508;2023-04-24T03:23:12;6.17;;;4.47;;
56201;SDS011;42117;50.360;3.508;2023-04-24T03:25:38;10.57;;;6.53;;
56201;SDS011;42117;50.360;3.508;2023-04-24T03:28:04;6.07;;;5.07;;
56201;SDS011;42117;50.360;3.508;2023-04-24T03:30:30;8.60;;;6.25;;
56201;SDS011;42117;50.360;3.508;2023-04-24T03:32:56;6.82;;;5.75;;
56201;SDS011;42117;50.360;3.508;2023-04-24T03:35:22;7.90;;;5.30;;
56201;SDS011;42117;50.360;3.508;2023-04-24T03:37:48;9.38;;;6.32;;
56201;SDS011;42117;50.360;3.508;2023-04-24T03:40:14;14.43;;;7.28;;
56201;SDS011;42117;50.360;3.508;2023-04-24T03:42:40;10.27;;;5.72;;
56201;SDS011;42117;50.360;3.508;2023-04-24T03:45:07;11.73;;;7.45;;
56201;SDS011;42117;50.360;3.508;2023-04-24T03:47:33;14.85;;;5.38;;
56201;SDS011;42117;50.360;3.508;2023-04-24T03:49:59;12.47;;;7.47;;
56201;SDS011;42117;50.360;3.508;2023-04-24T03:52:25;13.70;;;7.50;;
56201;SDS011;42117;50.360;3.508;2023-04-24T03:54:51;8.73;;;5.57;;
56201;SDS011;42117;50.360;3.508;2023-04-24T03:57:17;10.73;;;6.22;;
56201;SDS011;42117;50.360;3.508;2023-04-24T03:59:43;9.90;;;7.32;;
56201;SDS011;42117;50.360;3.508;2023-04-24T04:02:09;12.50;;;7.07;;
56201;SDS011;42117;50.360;3.508;2023-04-24T04:04:35;10.93;;;8.02;;
56201;SDS011;42117;50.360;3.508;2023-04-24T04:07:01;11.80;;;5.88;;
56201;SDS011;42117;50.360;3.508;2023-04-24T04:09:28;15.88;;;8.35;;
56201;SDS011;42117;50.360;3.508;2023-04-24T04:11:54;11.48;;;7.32;;
56201;SDS011;42117;50.360;3.508;2023-04-24T04:14:20;7.93;;;6.07;;
56201;SDS011;42117;50.360;3.508;2023-04-24T04:16:46;6.63;;;6.00;;
56201;SDS011;42117;50.360;3.508;2023-04-24T04:19:12;13.90;;;7.87;;
56201;SDS011;42117;50.360;3.508;2023-04-24T04:21:38;8.23;;;7.10;;
56201;SDS011;42117;50.360;3.508;2023-04-24T04:24:04;16.42;;;9.15;;
56201;SDS011;42117;50.360;3.508;2023-04-24T04:26:32;19.90;;;9.88;;
56201;SDS011;42117;50.360;3.508;2023-04-24T04:28:58;14.55;;;8.30;;
56201;SDS011;42117;50.360;3.508;2023-04-24T04:31:25;9.65;;;6.35;;
56201;SDS011;42117;50.360;3.508;2023-04-24T04:33:51;13.93;;;8.65;;
56201;SDS011;42117;50.360;3.508;2023-04-24T04:36:17;11.02;;;6.90;;
56201;SDS011;42117;50.360;3.508;2023-04-24T04:38:43;12.50;;;7.10;;
56201;SDS011;42117;50.360;3.508;2023-04-24T04:41:09;13.02;;;7.85;;
56201;SDS011;42117;50.360;3.508;2023-04-24T04:43:36;10.27;;;6.57;;
56201;SDS011;42117;50.360;3.508;2023-04-24T04:46:03;10.23;;;7.20;;
56201;SDS011;42117;50.360;3.508;2023-04-24T04:48:29;13.90;;;8.85;;
56201;SDS011;42117;50.360;3.508;2023-04-24T04:50:56;15.15;;;9.40;;
56201;SDS011;42117;50.360;3.508;2023-04-24T04:53:22;13.20;;;8.93;;
56201;SDS011;42117;50.360;3.508;2023-04-24T04:55:48;11.80;;;7.93;;
56201;SDS011;42117;50.360;3.508;2023-04-24T04:58:15;12.45;;;8.52;;
56201;SDS011;42117;50.360;3.508;2023-04-24T05:00:41;17.45;;;9.00;;
56201;SDS011;42117;50.360;3.508;2023-04-24T05:03:07;10.70;;;6.82;;
56201;SDS011;42117;50.360;3.508;2023-04-24T05:05:33;10.73;;;7.30;;
56201;SDS011;42117;50.360;3.508;2023-04-24T05:07:59;17.38;;;9.77;;
56201;SDS011;42117;50.360;3.508;2023-04-24T05:10:25;9.57;;;6.40;;
56201;SDS011;42117;50.360;3.508;2023-04-24T05:12:51;12.85;;;8.65;;
56201;SDS011;42117;50.360;3.508;2023-04-24T05:15:17;14.65;;;9.30;;
56201;SDS011;42117;50.360;3.508;2023-04-24T05:17:43;10.73;;;7.45;;
56201;SDS011;42117;50.360;3.508;2023-04-24T05:20:09;11.88;;;8.05;;
56201;SDS011;42117;50.360;3.508;2023-04-24T05:22:35;15.57;;;8.80;;
56201;SDS011;42117;50.360;3.508;2023-04-24T05:25:01;9.43;;;7.43;;
56201;SDS011;42117;50.360;3.508;2023-04-24T05:27:27;10.47;;;6.77;;
56201;SDS011;42117;50.360;3.508;2023-04-24T05:29:54;10.63;;;7.50;;
56201;SDS011;42117;50.360;3.508;2023-04-24T05:32:20;16.08;;;8.88;;
56201;SDS011;42117;50.360;3.508;2023-04-24T05:34:46;10.57;;;6.40;;
56201;SDS011;42117;50.360;3.508;2023-04-24T05:37:12;11.73;;;6.47;;
56201;SDS011;42117;50.360;3.508;2023-04-24T05:39:38;11.10;;;7.40;;
56201;SDS011;42117;50.360;3.508;2023-04-24T05:42:06;13.68;;;8.35;;
56201;SDS011;42117;50.360;3.508;2023-04-24T05:44:32;13.88;;;7.38;;
56201;SDS011;42117;50.360;3.508;2023-04-24T05:46:58;12.27;;;8.73;;
56201;SDS011;42117;50.360;3.508;2023-04-24T05:49:24;13.73;;;9.17;;
56201;SDS011;42117;50.360;3.508;2023-04-24T05:51:50;15.35;;;8.23;;
56201;SDS011;42117;50.360;3.508;2023-04-24T05:54:16;12.77;;;7.82;;
56201;SDS011;42117;50.360;3.508;2023-04-24T05:56:42;15.57;;;8.23;;
56201;SDS011;42117;50.360;3.508;2023-04-24T05:59:08;12.05;;;6.95;;
56201;SDS011;42117;50.360;3.508;2023-04-24T06:01:34;12.05;;;8.10;;
56201;SDS011;42117;50.360;3.508;2023-04-24T06:04:01;13.32;;;8.15;;
56201;SDS011;42117;50.360;3.508;2023-04-24T06:06:27;14.27;;;8.68;;
56201;SDS011;42117;50.360;3.508;2023-04-24T06:08:53;9.68;;;6.60;;
56201;SDS011;42117;50.360;3.508;2023-04-24T06:11:20;11.23;;;7.10;;
56201;SDS011;42117;50.360;3.508;2023-04-24T06:13:47;9.38;;;7.25;;
56201;SDS011;42117;50.360;3.508;2023-04-24T06:16:13;6.25;;;5.45;;
56201;SDS011;42117;50.360;3.508;2023-04-24T06:18:39;9.95;;;6.25;;
56201;SDS011;42117;50.360;3.508;2023-04-24T06:21:05;10.30;;;4.18;;
56201;SDS011;42117;50.360;3.508;2023-04-24T06:23:31;5.03;;;4.40;;
56201;SDS011;42117;50.360;3.508;2023-04-24T06:25:58;5.82;;;4.75;;
56201;SDS011;42117;50.360;3.508;2023-04-24T06:28:24;12.80;;;5.97;;
56201;SDS011;42117;50.360;3.508;2023-04-24T06:30:50;4.28;;;3.85;;
56201;SDS011;42117;50.360;3.508;2023-04-24T06:33:16;14.73;;;7.88;;
56201;SDS011;42117;50.360;3.508;2023-04-24T06:35:42;5.18;;;4.57;;
56201;SDS011;42117;50.360;3.508;2023-04-24T06:38:08;13.02;;;7.43;;
56201;SDS011;42117;50.360;3.508;2023-04-24T06:40:34;10.65;;;6.97;;
56201;SDS011;42117;50.360;3.508;2023-04-24T06:43:00;13.32;;;7.70;;
56201;SDS011;42117;50.360;3.508;2023-04-24T06:45:28;12.07;;;7.55;;
56201;SDS011;42117;50.360;3.508;2023-04-24T06:47:54;16.55;;;8.43;;
56201;SDS011;42117;50.360;3.508;2023-04-24T06:50:21;14.90;;;8.68;;
56201;SDS011;42117;50.360;3.508;2023-04-24T06:52:47;11.02;;;6.00;;
56201;SDS011;42117;50.360;3.508;2023-04-24T06:55:13;14.75;;;7.30;;
56201;SDS011;42117;50.360;3.508;2023-04-24T06:57:41;13.98;;;7.65;;
56201;SDS011;42117;50.360;3.508;2023-04-24T07:00:07;13.65;;;7.55;;
56201;SDS011;42117;50.360;3.508;2023-04-24T07:02:34;13.02;;;6.57;;
56201;SDS011;42117;50.360;3.508;2023-04-24T07:05:00;11.40;;;7.07;;
56201;SDS011;42117;50.360;3.508;2023-04-24T07:07:27;14.18;;;7.63;;
56201;SDS011;42117;50.360;3.508;2023-04-24T07:09:53;14.23;;;6.43;;
56201;SDS011;42117;50.360;3.508;2023-04-24T07:12:19;7.22;;;5.38;;
56201;SDS011;42117;50.360;3.508;2023-04-24T07:14:46;7.22;;;4.88;;
56201;SDS011;42117;50.360;3.508;2023-04-24T07:17:13;13.75;;;6.78;;
56201;SDS011;42117;50.360;3.508;2023-04-24T07:19:39;9.20;;;6.45;;
56201;SDS011;42117;50.360;3.508;2023-04-24T07:22:05;11.43;;;5.80;;
56201;SDS011;42117;50.360;3.508;2023-04-24T07:24:31;9.70;;;5.07;;
56201;SDS011;42117;50.360;3.508;2023-04-24T07:26:58;10.02;;;6.50;;
56201;SDS011;42117;50.360;3.508;2023-04-24T07:29:24;12.90;;;8.13;;
56201;SDS011;42117;50.360;3.508;2023-04-24T07:31:50;8.68;;;5.72;;
56201;SDS011;42117;50.360;3.508;2023-04-24T07:34:16;13.15;;;5.63;;
56201;SDS011;42117;50.360;3.508;2023-04-24T07:36:42;6.25;;;5.05;;
56201;SDS011;42117;50.360;3.508;2023-04-24T07:39:08;8.18;;;5.13;;
56201;SDS011;42117;50.360;3.508;2023-04-24T07:41:34;14.00;;;7.20;;
56201;SDS011;42117;50.360;3.508;2023-04-24T07:44:00;10.73;;;7.00;;
56201;SDS011;42117;50.360;3.508;2023-04-24T07:46:26;8.20;;;6.07;;
56201;SDS011;42117;50.360;3.508;2023-04-24T07:48:54;7.50;;;5.37;;
56201;SDS011;42117;50.360;3.508;2023-04-24T07:51:20;9.77;;;6.57;;
56201;SDS011;42117;50.360;3.508;2023-04-24T07:53:46;9.23;;;5.72;;
56201;SDS011;42117;50.360;3.508;2023-04-24T07:56:16;14.13;;;8.82;;
56201;SDS011;42117;50.360;3.508;2023-04-24T07:58:42;12.23;;;7.53;;
56201;SDS011;42117;50.360;3.508;2023-04-24T08:01:08;6.95;;;5.18;;
56201;SDS011;42117;50.360;3.508;2023-04-24T08:03:34;11.00;;;6.75;;
56201;SDS011;42117;50.360;3.508;2023-04-24T08:06:00;8.93;;;6.93;;
56201;SDS011;42117;50.360;3.508;2023-04-24T08:08:26;13.10;;;5.80;;
56201;SDS011;42117;50.360;3.508;2023-04-24T08:10:52;10.88;;;6.88;;
56201;SDS011;42117;50.360;3.508;2023-04-24T08:13:18;11.80;;;6.82;;
56201;SDS011;42117;50.360;3.508;2023-04-24T08:15:44;8.05;;;5.85;;
56201;SDS011;42117;50.360;3.508;2023-04-24T08:18:10;9.93;;;4.85;;
56201;SDS011;42117;50.360;3.508;2023-04-24T08:20:38;7.30;;;4.97;;
56201;SDS011;42117;50.360;3.508;2023-04-24T08:23:04;8.65;;;5.18;;
56201;SDS011;42117;50.360;3.508;2023-04-24T08:25:30;9.48;;;7.15;;
56201;SDS011;42117;50.360;3.508;2023-04-24T08:27:56;5.90;;;4.93;;
56201;SDS011;42117;50.360;3.508;2023-04-24T08:30:22;10.20;;;6.05;;
56201;SDS011;42117;50.360;3.508;2023-04-24T08:32:48;7.85;;;5.85;;
56201;SDS011;42117;50.360;3.508;2023-04-24T08:35:14;11.52;;;6.85;;
56201;SDS011;42117;50.360;3.508;2023-04-24T08:37:40;7.63;;;5.03;;
56201;SDS011;42117;50.360;3.508;2023-04-24T08:40:11;6.88;;;4.57;;
56201;SDS011;42117;50.360;3.508;2023-04-24T08:42:39;5.03;;;4.35;;
56201;SDS011;42117;50.360;3.508;2023-04-24T08:45:05;8.83;;;5.50;;
56201;SDS011;42117;50.360;3.508;2023-04-24T08:47:31;4.50;;;4.10;;
56201;SDS011;42117;50.360;3.508;2023-04-24T08:49:58;4.30;;;3.67;;
56201;SDS011;42117;50.360;3.508;2023-04-24T08:52:27;9.20;;;5.82;;
56201;SDS011;42117;50.360;3.508;2023-04-24T08:54:54;7.70;;;5.40;;
56201;SDS011;42117;50.360;3.508;2023-04-24T08:57:20;7.07;;;5.72;;
56201;SDS011;42117;50.360;3.508;2023-04-24T08:59:47;5.38;;;4.05;;
56201;SDS011;42117;50.360;3.508;2023-04-24T09:02:13;3.28;;;3.08;;
56201;SDS011;42117;50.360;3.508;2023-04-24T09:04:40;8.70;;;4.87;;
56201;SDS011;42117;50.360;3.508;2023-04-24T09:07:06;10.52;;;6.28;;
56201;SDS011;42117;50.360;3.508;2023-04-24T09:09:33;12.10;;;6.37;;
56201;SDS011;42117;50.360;3.508;2023-04-24T09:12:02;10.32;;;6.18;;
56201;SDS011;42117;50.360;3.508;2023-04-24T09:14:31;17.90;;;7.00;;
56201;SDS011;42117;50.360;3.508;2023-04-24T09:16:57;9.18;;;5.68;;
56201;SDS011;42117;50.360;3.508;2023-04-24T09:19:23;10.77;;;5.53;;
56201;SDS011;42117;50.360;3.508;2023-04-24T09:21:49;8.63;;;5.97;;
56201;SDS011;42117;50.360;3.508;2023-04-24T09:24:19;9.95;;;5.80;;
56201;SDS011;42117;50.360;3.508;2023-04-24T09:26:47;7.60;;;5.10;;
56201;SDS011;42117;50.360;3.508;2023-04-24T09:29:17;12.85;;;6.22;;
56201;SDS011;42117;50.360;3.508;2023-04-24T09:31:43;13.67;;;6.77;;
56201;SDS011;42117;50.360;3.508;2023-04-24T09:34:09;10.85;;;5.88;;
56201;SDS011;42117;50.360;3.508;2023-04-24T09:36:36;12.68;;;7.00;;
56201;SDS011;42117;50.360;3.508;2023-04-24T09:39:05;10.68;;;6.65;;
56201;SDS011;42117;50.360;3.508;2023-04-24T09:41:36;9.77;;;6.90;;
56201;SDS011;42117;50.360;3.508;2023-04-24T09:44:16;15.77;;;6.87;;
56201;SDS011;42117;50.360;3.508;2023-04-24T09:46:42;11.30;;;6.47;;
56201;SDS011;42117;50.360;3.508;2023-04-24T09:49:09;13.48;;;6.63;;
56201;SDS011;42117;50.360;3.508;2023-04-24T09:51:36;14.98;;;6.45;;
56201;SDS011;42117;50.360;3.508;2023-04-24T09:54:23;10.75;;;6.55;;
56201;SDS011;42117;50.360;3.508;2023-04-24T09:56:50;7.50;;;5.33;;
56201;SDS011;42117;50.360;3.508;2023-04-24T09:59:17;5.75;;;4.32;;
56201;SDS011;42117;50.360;3.508;2023-04-24T10:01:43;7.60;;;5.45;;
56201;SDS011;42117;50.360;3.508;2023-04-24T10:06:42;6.43;;;5.00;;
56201;SDS011;42117;50.360;3.508;2023-04-24T10:09:08;8.60;;;5.13;;
56201;SDS011;42117;50.360;3.508;2023-04-24T10:11:37;12.97;;;7.23;;
56201;SDS011;42117;50.360;3.508;2023-04-24T10:14:03;12.60;;;6.75;;
56201;SDS011;42117;50.360;3.508;2023-04-24T10:16:29;13.02;;;7.82;;
56201;SDS011;42117;50.360;3.508;2023-04-24T10:18:55;11.85;;;5.63;;
56201;SDS011;42117;50.360;3.508;2023-04-24T10:21:21;8.88;;;5.43;;
56201;SDS011;42117;50.360;3.508;2023-04-24T10:23:48;9.45;;;6.15;;
56201;SDS011;42117;50.360;3.508;2023-04-24T10:26:15;8.02;;;5.05;;
56201;SDS011;42117;50.360;3.508;2023-04-24T10:28:46;12.52;;;6.53;;
56201;SDS011;42117;50.360;3.508;2023-04-24T10:31:12;8.43;;;5.80;;
56201;SDS011;42117;50.360;3.508;2023-04-24T10:33:42;11.70;;;6.03;;
56201;SDS011;42117;50.360;3.508;2023-04-24T10:36:09;8.63;;;5.85;;
56201;SDS011;42117;50.360;3.508;2023-04-24T10:38:35;7.85;;;4.70;;
56201;SDS011;42117;50.360;3.508;2023-04-24T10:41:12;9.63;;;6.15;;
56201;SDS011;42117;50.360;3.508;2023-04-24T10:43:44;11.70;;;6.40;;
56201;SDS011;42117;50.360;3.508;2023-04-24T10:46:10;10.02;;;6.45;;
56201;SDS011;42117;50.360;3.508;2023-04-24T10:48:42;12.02;;;6.43;;
56201;SDS011;42117;50.360;3.508;2023-04-24T10:51:12;14.15;;;6.35;;
56201;SDS011;42117;50.360;3.508;2023-04-24T10:53:39;14.82;;;6.22;;
56201;SDS011;42117;50.360;3.508;2023-04-24T10:56:06;13.25;;;6.53;;
56201;SDS011;42117;50.360;3.508;2023-04-24T11:01:31;10.93;;;6.20;;
56201;SDS011;42117;50.360;3.508;2023-04-24T11:04:03;12.00;;;6.20;;
56201;SDS011;42117;50.360;3.508;2023-04-24T11:06:30;10.18;;;6.50;;
56201;SDS011;42117;50.360;3.508;2023-04-24T11:09:04;8.38;;;5.45;;
56201;SDS011;42117;50.360;3.508;2023-04-24T11:11:31;12.48;;;7.68;;
56201;SDS011;42117;50.360;3.508;2023-04-24T11:19:06;15.95;;;10.38;;
56201;SDS011;42117;50.360;3.508;2023-04-24T11:21:40;16.33;;;9.02;;
56201;SDS011;42117;50.360;3.508;2023-04-24T11:26:51;15.02;;;9.57;;
56201;SDS011;42117;50.360;3.508;2023-04-24T11:29:19;12.27;;;8.20;;
56201;SDS011;42117;50.360;3.508;2023-04-24T11:31:45;14.67;;;8.47;;
56201;SDS011;42117;50.360;3.508;2023-04-24T11:34:14;8.85;;;6.53;;
56201;SDS011;42117;50.360;3.508;2023-04-24T11:36:45;8.15;;;6.88;;
56201;SDS011;42117;50.360;3.508;2023-04-24T11:39:12;11.48;;;7.43;;
56201;SDS011;42117;50.360;3.508;2023-04-24T11:41:39;9.13;;;6.37;;
56201;SDS011;42117;50.360;3.508;2023-04-24T11:44:08;7.25;;;5.43;;
56201;SDS011;42117;50.360;3.508;2023-04-24T11:46:36;11.25;;;6.20;;
56201;SDS011;42117;50.360;3.508;2023-04-24T11:49:07;8.43;;;6.82;;
56201;SDS011;42117;50.360;3.508;2023-04-24T11:51:36;8.25;;;6.00;;
56201;SDS011;42117;50.360;3.508;2023-04-24T11:54:07;8.82;;;5.78;;
56201;SDS011;42117;50.360;3.508;2023-04-24T11:56:34;8.30;;;5.88;;
56201;SDS011;42117;50.360;3.508;2023-04-24T11:59:00;5.65;;;5.05;;
56201;SDS011;42117;50.360;3.508;2023-04-24T12:01:29;9.38;;;5.18;;
56201;SDS011;42117;50.360;3.508;2023-04-24T12:04:00;9.90;;;7.65;;
56201;SDS011;42117;50.360;3.508;2023-04-24T12:06:26;12.45;;;8.27;;
56201;SDS011;42117;50.360;3.508;2023-04-24T12:08:55;14.45;;;9.30;;
56201;SDS011;42117;50.360;3.508;2023-04-24T12:11:22;13.75;;;9.10;;
56201;SDS011;42117;50.360;3.508;2023-04-24T12:13:48;14.13;;;8.38;;
56201;SDS011;42117;50.360;3.508;2023-04-24T12:16:15;16.85;;;8.60;;
56201;SDS011;42117;50.360;3.508;2023-04-24T12:18:44;16.75;;;8.90;;
56201;SDS011;42117;50.360;3.508;2023-04-24T12:21:23;19.80;;;9.52;;
56201;SDS011;42117;50.360;3.508;2023-04-24T12:23:54;15.70;;;8.77;;
56201;SDS011;42117;50.360;3.508;2023-04-24T12:26:20;7.65;;;6.78;;
56201;SDS011;42117;50.360;3.508;2023-04-24T12:28:48;9.68;;;5.90;;
56201;SDS011;42117;50.360;3.508;2023-04-24T12:31:15;10.07;;;6.03;;
56201;SDS011;42117;50.360;3.508;2023-04-24T12:33:41;8.90;;;6.45;;
56201;SDS011;42117;50.360;3.508;2023-04-24T12:36:09;7.68;;;6.35;;
56201;SDS011;42117;50.360;3.508;2023-04-24T12:38:37;8.23;;;6.03;;
56201;SDS011;42117;50.360;3.508;2023-04-24T12:41:09;7.55;;;5.40;;
56201;SDS011;42117;50.360;3.508;2023-04-24T12:43:36;7.55;;;5.90;;
56201;SDS011;42117;50.360;3.508;2023-04-24T12:46:06;7.57;;;5.93;;
56201;SDS011;42117;50.360;3.508;2023-04-24T12:48:32;8.85;;;5.93;;
56201;SDS011;42117;50.360;3.508;2023-04-24T12:50:58;9.48;;;6.07;;
56201;SDS011;42117;50.360;3.508;2023-04-24T12:53:27;6.95;;;5.95;;
56201;SDS011;42117;50.360;3.508;2023-04-24T12:55:57;12.23;;;5.40;;
56201;SDS011;42117;50.360;3.508;2023-04-24T12:58:23;8.98;;;5.75;;
56201;SDS011;42117;50.360;3.508;2023-04-24T13:00:49;7.90;;;6.05;;
56201;SDS011;42117;50.360;3.508;2023-04-24T13:03:16;10.00;;;5.97;;
56201;SDS011;42117;50.360;3.508;2023-04-24T13:05:42;10.33;;;5.80;;
56201;SDS011;42117;50.360;3.508;2023-04-24T13:08:08;7.72;;;5.43;;
56201;SDS011;42117;50.360;3.508;2023-04-24T13:10:35;7.88;;;5.82;;
56201;SDS011;42117;50.360;3.508;2023-04-24T13:13:01;5.95;;;4.82;;
56201;SDS011;42117;50.360;3.508;2023-04-24T13:15:27;7.75;;;5.80;;
56201;SDS011;42117;50.360;3.508;2023-04-24T13:17:53;7.13;;;4.55;;
56201;SDS011;42117;50.360;3.508;2023-04-24T13:20:19;4.97;;;3.55;;
56201;SDS011;42117;50.360;3.508;2023-04-24T13:22:45;9.15;;;4.57;;
56201;SDS011;42117;50.360;3.508;2023-04-24T13:25:11;7.67;;;4.53;;
56201;SDS011;42117;50.360;3.508;2023-04-24T13:27:40;4.97;;;4.20;;
56201;SDS011;42117;50.360;3.508;2023-04-24T13:30:06;3.72;;;3.35;;
56201;SDS011;42117;50.360;3.508;2023-04-24T13:32:32;7.63;;;4.78;;
56201;SDS011;42117;50.360;3.508;2023-04-24T13:35:00;7.00;;;5.07;;
56201;SDS011;42117;50.360;3.508;2023-04-24T13:37:27;7.53;;;4.43;;
56201;SDS011;42117;50.360;3.508;2023-04-24T13:39:53;7.15;;;4.88;;
56201;SDS011;42117;50.360;3.508;2023-04-24T13:42:19;5.65;;;4.60;;
56201;SDS011;42117;50.360;3.508;2023-04-24T13:44:45;6.10;;;4.88;;
56201;SDS011;42117;50.360;3.508;2023-04-24T13:47:11;3.60;;;2.60;;
56201;SDS011;42117;50.360;3.508;2023-04-24T13:49:37;5.45;;;3.83;;
56201;SDS011;42117;50.360;3.508;2023-04-24T13:52:03;4.90;;;3.78;;
56201;SDS011;42117;50.360;3.508;2023-04-24T13:54:29;5.65;;;4.15;;
56201;SDS011;42117;50.360;3.508;2023-04-24T13:56:57;7.30;;;5.35;;
56201;SDS011;42117;50.360;3.508;2023-04-24T13:59:23;10.38;;;4.90;;
56201;SDS011;42117;50.360;3.508;2023-04-24T14:01:50;8.98;;;5.10;;
56201;SDS011;42117;50.360;3.508;2023-04-24T14:04:16;10.25;;;5.63;;
56201;SDS011;42117;50.360;3.508;2023-04-24T14:06:45;8.85;;;5.43;;
56201;SDS011;42117;50.360;3.508;2023-04-24T14:09:11;10.37;;;5.57;;
56201;SDS011;42117;50.360;3.508;2023-04-24T14:11:38;8.88;;;5.50;;
56201;SDS011;42117;50.360;3.508;2023-04-24T14:14:04;9.53;;;5.33;;
56201;SDS011;42117;50.360;3.508;2023-04-24T14:16:30;7.82;;;5.55;;
56201;SDS011;42117;50.360;3.508;2023-04-24T14:18:56;7.60;;;5.10;;
56201;SDS011;42117;50.360;3.508;2023-04-24T14:21:22;7.82;;;4.78;;
56201;SDS011;42117;50.360;3.508;2023-04-24T14:23:48;7.20;;;4.82;;
56201;SDS011;42117;50.360;3.508;2023-04-24T14:26:15;5.60;;;4.57;;
56201;SDS011;42117;50.360;3.508;2023-04-24T14:28:41;9.07;;;5.10;;
56201;SDS011;42117;50.360;3.508;2023-04-24T14:31:07;8.20;;;5.10;;
56201;SDS011;42117;50.360;3.508;2023-04-24T14:33:34;8.95;;;4.68;;
56201;SDS011;42117;50.360;3.508;2023-04-24T14:36:00;9.27;;;5.72;;
56201;SDS011;42117;50.360;3.508;2023-04-24T14:38:31;6.50;;;4.10;;
56201;SDS011;42117;50.360;3.508;2023-04-24T14:40:57;7.00;;;4.57;;
56201;SDS011;42117;50.360;3.508;2023-04-24T14:43:23;6.78;;;4.03;;
56201;SDS011;42117;50.360;3.508;2023-04-24T14:45:49;6.65;;;4.28;;
56201;SDS011;42117;50.360;3.508;2023-04-24T14:48:15;6.03;;;3.65;;
56201;SDS011;42117;50.360;3.508;2023-04-24T14:50:45;5.10;;;3.50;;